createdAt,value
2018-11-26T00:00:15.526Z,24.43
2018-11-26T00:02:44.007Z,21.93
2018-11-26T00:05:12.446Z,21.47
2018-11-26T00:07:40.919Z,20.13
2018-11-26T00:10:20.503Z,21.07
2018-11-26T00:12:48.941Z,19.30
2018-11-26T00:15:17.368Z,23.57
2018-11-26T00:17:45.698Z,23.77
2018-11-26T00:20:14.089Z,18.20
2018-11-26T00:22:42.464Z,19.50
2018-11-26T00:25:10.858Z,23.33
2018-11-26T00:27:39.213Z,19.77
2018-11-26T00:30:08.349Z,22.57
2018-11-26T00:32:36.748Z,21.50
2018-11-26T00:35:05.200Z,20.70
2018-11-26T00:37:33.514Z,21.40
2018-11-26T00:40:01.919Z,21.10
2018-11-26T00:42:30.307Z,20.87
2018-11-26T00:44:58.608Z,18.97
2018-11-26T00:47:27.692Z,24.50
2018-11-26T00:49:56.031Z,27.57
2018-11-26T00:52:24.444Z,23.90
2018-11-26T00:54:52.852Z,25.70
2018-11-26T00:57:21.297Z,26.07
2018-11-26T00:59:49.639Z,26.37
2018-11-26T01:02:18.133Z,25.33
2018-11-26T01:04:46.520Z,23.87
2018-11-26T01:07:14.989Z,26.00
2018-11-26T01:09:43.437Z,29.17
2018-11-26T01:12:11.872Z,24.93
2018-11-26T01:14:40.297Z,26.53
2018-11-26T01:17:08.644Z,25.00
2018-11-26T01:19:37.074Z,26.20
2018-11-26T01:22:05.503Z,24.13
2018-11-26T01:24:33.906Z,23.80
2018-11-26T01:27:02.320Z,27.93
2018-11-26T01:29:30.659Z,24.67
2018-11-26T01:31:59.033Z,26.27
2018-11-26T01:34:27.384Z,27.90
2018-11-26T01:36:55.848Z,25.40
2018-11-26T01:39:24.262Z,24.67
2018-11-26T01:41:52.631Z,26.97
2018-11-26T01:44:20.954Z,25.40
2018-11-26T01:46:49.372Z,27.90
2018-11-26T01:49:17.806Z,29.77
2018-11-26T01:51:46.303Z,25.23
2018-11-26T01:54:14.795Z,26.43
2018-11-26T01:56:43.234Z,25.87
2018-11-26T01:59:11.552Z,30.63
2018-11-26T02:01:40.016Z,26.70
2018-11-26T02:04:08.433Z,27.23
2018-11-26T02:06:36.831Z,25.53
2018-11-26T02:09:05.583Z,28.53
2018-11-26T02:11:33.894Z,27.50
2018-11-26T02:14:02.261Z,22.43
2018-11-26T02:16:30.634Z,22.80
2018-11-26T02:18:59.005Z,23.23
2018-11-26T02:21:27.528Z,19.20
2018-11-26T02:23:55.917Z,21.37
2018-11-26T02:26:24.251Z,18.43
2018-11-26T02:28:52.749Z,20.43
2018-11-26T02:31:21.197Z,19.50
2018-11-26T02:33:49.545Z,17.20
2018-11-26T02:36:18.016Z,18.47
2018-11-26T02:38:46.456Z,16.10
2018-11-26T02:41:14.854Z,17.77
2018-11-26T02:43:43.580Z,16.30
2018-11-26T02:46:12.020Z,17.33
2018-11-26T02:48:40.380Z,16.63
2018-11-26T02:51:08.808Z,18.83
2018-11-26T02:53:37.212Z,16.63
2018-11-26T02:56:05.873Z,17.27
2018-11-26T02:58:34.332Z,15.40
2018-11-26T03:01:02.683Z,14.57
2018-11-26T03:03:31.098Z,15.70
2018-11-26T03:05:59.525Z,17.33
2018-11-26T03:08:28.007Z,14.80
2018-11-26T03:10:56.338Z,13.50
2018-11-26T03:13:24.669Z,13.47
2018-11-26T03:15:52.992Z,12.70
2018-11-26T03:18:21.303Z,13.60
2018-11-26T03:20:49.673Z,14.57
2018-11-26T03:23:18.047Z,14.10
2018-11-26T03:25:46.436Z,13.30
2018-11-26T03:28:14.834Z,12.60
2018-11-26T03:30:43.186Z,13.57
2018-11-26T03:33:11.490Z,13.37
2018-11-26T03:35:39.902Z,14.93
2018-11-26T03:38:11.902Z,13.53
2018-11-26T03:40:40.194Z,14.17
2018-11-26T03:43:08.494Z,13.23
2018-11-26T03:45:36.910Z,14.57
2018-11-26T03:48:05.996Z,15.40
2018-11-26T03:50:34.297Z,13.50
2018-11-26T03:53:02.665Z,15.33
2018-11-26T03:55:31.050Z,13.00
2018-11-26T03:57:59.378Z,14.13
2018-11-26T04:00:27.703Z,14.20
2018-11-26T04:02:56.036Z,14.63
2018-11-26T04:05:24.371Z,15.10
2018-11-26T04:07:52.805Z,15.03
2018-11-26T04:10:21.161Z,17.87
2018-11-26T04:12:49.455Z,14.77
2018-11-26T04:15:17.928Z,15.60
2018-11-26T04:17:46.245Z,15.00
2018-11-26T04:20:14.584Z,15.70
2018-11-26T04:22:42.972Z,15.30
2018-11-26T04:25:11.380Z,13.93
2018-11-26T04:27:39.852Z,15.33
2018-11-26T04:30:11.572Z,18.17
2018-11-26T04:32:40.675Z,17.90
2018-11-26T04:35:09.351Z,20.87
2018-11-26T04:37:37.711Z,18.97
2018-11-26T04:40:08.437Z,19.77
2018-11-26T04:42:36.904Z,19.37
2018-11-26T04:45:06.078Z,21.70
2018-11-26T04:47:34.412Z,16.03
2018-11-26T04:50:02.744Z,16.67
2018-11-26T04:52:31.175Z,15.63
2018-11-26T04:54:59.530Z,14.93
2018-11-26T04:57:27.989Z,14.67
2018-11-26T04:59:56.348Z,13.90
2018-11-26T05:02:24.789Z,14.43
2018-11-26T05:04:53.222Z,14.47
2018-11-26T05:07:21.652Z,12.50
2018-11-26T05:09:50.108Z,12.60
2018-11-26T05:12:18.557Z,12.80
2018-11-26T05:14:46.930Z,14.00
2018-11-26T05:17:15.271Z,15.20
2018-11-26T05:19:43.682Z,81.50
2018-11-26T05:22:12.283Z,13.47
2018-11-26T05:24:40.857Z,12.00
2018-11-26T05:27:09.529Z,12.50
2018-11-26T05:29:38.128Z,13.03
2018-11-26T05:32:06.845Z,11.23
2018-11-26T05:34:35.232Z,12.20
2018-11-26T05:37:03.658Z,10.93
2018-11-26T05:39:32.106Z,11.70
2018-11-26T05:42:00.503Z,12.20
2018-11-26T05:44:28.912Z,15.07
2018-11-26T05:46:57.346Z,10.83
2018-11-26T05:49:25.764Z,9.50
2018-11-26T05:51:54.160Z,12.30
2018-11-26T05:54:22.540Z,10.30
2018-11-26T05:56:50.901Z,11.80
2018-11-26T05:59:19.254Z,9.97
2018-11-26T06:01:47.654Z,12.83
2018-11-26T06:04:16.096Z,10.37
2018-11-26T06:06:44.509Z,11.00
2018-11-26T06:09:12.995Z,10.80
2018-11-26T06:11:41.478Z,9.77
2018-11-26T06:14:09.879Z,10.20
2018-11-26T06:16:38.240Z,11.10
2018-11-26T06:19:07.004Z,12.10
2018-11-26T06:21:35.493Z,9.87
2018-11-26T06:24:03.980Z,12.33
2018-11-26T06:26:32.413Z,10.20
2018-11-26T06:29:00.847Z,13.70
2018-11-26T06:31:29.401Z,10.53
2018-11-26T06:33:57.784Z,10.13
2018-11-26T06:36:26.153Z,10.50
2018-11-26T06:38:54.536Z,10.40
2018-11-26T06:41:22.896Z,15.73
2018-11-26T06:43:51.349Z,10.40
2018-11-26T06:46:19.708Z,9.00
2018-11-26T06:48:48.040Z,10.23
2018-11-26T06:51:16.437Z,9.97
2018-11-26T06:53:44.934Z,10.03
2018-11-26T06:56:13.392Z,10.20
2018-11-26T06:58:41.805Z,9.60
2018-11-26T07:01:10.212Z,10.57
2018-11-26T07:03:38.587Z,11.43
2018-11-26T07:06:07.360Z,11.40
2018-11-26T07:08:35.944Z,10.00
2018-11-26T07:11:04.464Z,9.60
2018-11-26T07:13:32.897Z,11.50
2018-11-26T07:16:01.452Z,9.30
2018-11-26T07:18:29.900Z,10.33
2018-11-26T07:20:58.289Z,11.13
2018-11-26T07:23:26.697Z,8.60
2018-11-26T07:25:55.148Z,9.90
2018-11-26T07:28:23.614Z,9.53
2018-11-26T07:30:51.991Z,10.30
2018-11-26T07:33:20.370Z,10.27
2018-11-26T07:35:49.013Z,14.07
2018-11-26T07:38:17.380Z,11.90
2018-11-26T07:40:45.906Z,10.97
2018-11-26T07:43:14.636Z,10.50
2018-11-26T07:45:43.171Z,9.33
2018-11-26T07:48:12.388Z,11.53
2018-11-26T07:50:40.860Z,10.60
2018-11-26T07:53:10.249Z,9.47
2018-11-26T07:55:39.324Z,9.60
2018-11-26T07:58:07.806Z,12.93
2018-11-26T08:00:36.116Z,10.47
2018-11-26T08:03:04.568Z,12.20
2018-11-26T08:05:33.058Z,12.33
2018-11-26T08:08:01.448Z,14.20
2018-11-26T08:10:29.861Z,15.93
2018-11-26T08:12:58.310Z,12.57
2018-11-26T08:15:28.047Z,15.60
2018-11-26T08:17:56.584Z,15.67
2018-11-26T08:20:24.946Z,11.17
2018-11-26T08:22:53.416Z,14.63
2018-11-26T08:25:22.861Z,11.83
2018-11-26T08:27:51.760Z,13.87
2018-11-26T08:30:21.544Z,13.17
2018-11-26T08:32:51.220Z,12.30
2018-11-26T08:35:19.637Z,14.40
2018-11-26T08:37:53.316Z,11.10
2018-11-26T08:40:29.152Z,10.07
2018-11-26T08:42:58.470Z,12.00
2018-11-26T08:45:34.320Z,13.10
2018-11-26T08:48:05.719Z,13.23
2018-11-26T08:50:34.428Z,12.00
2018-11-26T08:53:02.762Z,10.47
2018-11-26T08:55:31.115Z,8.63
2018-11-26T08:57:59.477Z,11.03
2018-11-26T09:00:27.928Z,9.47
2018-11-26T09:03:01.785Z,9.30
2018-11-26T09:05:40.607Z,8.60
2018-11-26T09:08:09.004Z,10.53
2018-11-26T09:10:37.418Z,9.20
2018-11-26T09:13:05.772Z,9.67
2018-11-26T09:15:34.237Z,9.60
2018-11-26T09:18:02.683Z,9.03
2018-11-26T09:20:31.156Z,10.80
2018-11-26T09:22:59.458Z,9.63
2018-11-26T09:25:27.843Z,10.50
2018-11-26T09:27:56.242Z,10.70
2018-11-26T09:30:24.690Z,10.23
2018-11-26T09:32:52.980Z,11.47
2018-11-26T09:35:21.367Z,10.10
2018-11-26T09:37:49.789Z,10.53
2018-11-26T09:40:18.270Z,12.27
2018-11-26T09:42:46.658Z,11.77
2018-11-26T09:45:16.600Z,9.80
2018-11-26T09:47:45.242Z,11.23
2018-11-26T09:50:14.918Z,11.60
2018-11-26T09:52:43.364Z,10.53
2018-11-26T09:55:12.668Z,11.60
2018-11-26T09:57:41.055Z,12.33
2018-11-26T10:00:16.417Z,10.60
2018-11-26T10:02:46.187Z,10.53
2018-11-26T10:05:17.964Z,10.63
2018-11-26T10:07:46.412Z,9.30
2018-11-26T10:10:15.034Z,9.97
2018-11-26T10:12:44.132Z,9.50
2018-11-26T10:15:17.756Z,11.73
2018-11-26T10:17:46.210Z,9.13
2018-11-26T10:20:14.593Z,8.67
2018-11-26T10:22:43.532Z,9.50
2018-11-26T10:25:14.154Z,9.27
2018-11-26T10:27:42.490Z,8.40
2018-11-26T10:30:12.883Z,7.67
2018-11-26T10:32:41.586Z,8.93
2018-11-26T10:35:12.313Z,9.30
2018-11-26T10:37:40.663Z,8.40
2018-11-26T10:40:11.266Z,9.50
2018-11-26T10:42:39.655Z,8.53
2018-11-26T10:45:10.752Z,9.67
2018-11-26T10:47:39.181Z,7.97
2018-11-26T10:50:09.555Z,8.57
2018-11-26T10:52:38.014Z,7.90
2018-11-26T10:55:11.096Z,8.00
2018-11-26T10:57:39.484Z,7.70
2018-11-26T11:00:14.156Z,7.40
2018-11-26T11:02:42.997Z,6.40
2018-11-26T11:05:11.466Z,7.50
2018-11-26T11:07:40.051Z,7.43
2018-11-26T11:10:10.976Z,6.50
2018-11-26T11:12:39.327Z,6.50
2018-11-26T11:15:10.700Z,6.53
2018-11-26T11:17:39.134Z,5.10
2018-11-26T11:20:16.742Z,6.77
2018-11-26T11:22:45.221Z,5.80
2018-11-26T11:25:14.442Z,6.03
2018-11-26T11:27:43.061Z,5.60
2018-11-26T11:30:16.763Z,6.70
2018-11-26T11:32:45.131Z,7.33
2018-11-26T11:35:14.491Z,6.37
2018-11-26T11:37:43.903Z,4.43
2018-11-26T11:40:44.198Z,5.70
2018-11-26T11:43:12.577Z,5.90
2018-11-26T11:45:40.882Z,5.27
2018-11-26T11:48:09.323Z,4.60
2018-11-26T11:50:37.831Z,4.70
2018-11-26T11:53:06.192Z,4.30
2018-11-26T11:55:34.578Z,5.23
2018-11-26T11:58:02.994Z,5.50
2018-11-26T12:00:37.986Z,5.23
2018-11-26T12:03:12.495Z,5.00
2018-11-26T12:05:40.856Z,4.20
2018-11-26T12:08:09.317Z,5.17
2018-11-26T12:10:37.710Z,4.77
2018-11-26T12:13:07.837Z,5.30
2018-11-26T12:15:37.722Z,4.47
2018-11-26T12:18:07.390Z,4.13
2018-11-26T12:20:36.361Z,4.63
2018-11-26T12:23:05.151Z,4.70
2018-11-26T12:25:33.520Z,4.67
2018-11-26T12:28:02.128Z,4.70
2018-11-26T12:30:31.888Z,5.87
2018-11-26T12:33:00.311Z,4.63
2018-11-26T12:35:28.751Z,5.10
2018-11-26T12:37:57.316Z,5.17
2018-11-26T12:40:26.672Z,5.20
2018-11-26T12:42:56.443Z,4.10
2018-11-26T12:45:26.121Z,5.23
2018-11-26T12:47:54.636Z,4.70
2018-11-26T12:50:22.981Z,4.20
2018-11-26T12:52:51.352Z,4.60
2018-11-26T12:55:20.754Z,5.30
2018-11-26T12:57:50.158Z,4.80
2018-11-26T13:00:20.666Z,4.70
2018-11-26T13:02:54.950Z,4.90
2018-11-26T13:05:23.446Z,4.60
2018-11-26T13:07:51.900Z,5.03
2018-11-26T13:10:21.437Z,4.20
2018-11-26T13:12:50.633Z,5.03
2018-11-26T13:15:27.223Z,4.43
2018-11-26T13:17:55.611Z,5.27
2018-11-26T13:20:26.086Z,4.40
2018-11-26T13:22:54.843Z,4.63
2018-11-26T13:25:25.558Z,4.83
2018-11-26T13:27:55.081Z,4.60
2018-11-26T13:30:27.573Z,4.57
2018-11-26T13:32:58.045Z,5.00
2018-11-26T13:35:26.480Z,4.60
2018-11-26T13:37:54.827Z,4.43
2018-11-26T13:40:24.055Z,5.50
2018-11-26T13:42:52.698Z,4.50
2018-11-26T13:45:37.589Z,4.87
2018-11-26T13:48:08.131Z,4.33
2018-11-26T13:50:38.234Z,4.60
2018-11-26T13:53:06.696Z,5.13
2018-11-26T13:55:35.372Z,5.73
2018-11-26T13:58:03.761Z,4.77
2018-11-26T14:00:32.259Z,7.07
2018-11-26T14:03:00.688Z,4.80
2018-11-26T14:05:29.131Z,5.50
2018-11-26T14:07:57.528Z,5.33
2018-11-26T14:10:27.337Z,7.67
2018-11-26T14:13:02.335Z,5.60
2018-11-26T14:15:30.824Z,6.20
2018-11-26T14:17:59.201Z,5.30
2018-11-26T14:20:27.522Z,6.23
2018-11-26T14:22:55.890Z,5.83
2018-11-26T14:25:24.263Z,6.50
2018-11-26T14:27:52.600Z,7.23
2018-11-26T14:30:23.894Z,7.53
2018-11-26T14:32:52.525Z,7.37
2018-11-26T14:35:21.207Z,6.60
2018-11-26T14:37:51.835Z,6.73
2018-11-26T14:40:28.433Z,6.97
2018-11-26T14:42:56.776Z,6.30
2018-11-26T14:45:25.155Z,6.57
2018-11-26T14:47:53.510Z,5.60
2018-11-26T14:50:21.905Z,7.30
2018-11-26T14:52:50.756Z,6.00
2018-11-26T14:55:21.459Z,6.30
2018-11-26T14:57:49.897Z,6.17
2018-11-26T15:00:18.970Z,5.80
2018-11-26T15:02:47.377Z,6.90
2018-11-26T15:05:15.998Z,6.40
2018-11-26T15:07:45.000Z,5.70
2018-11-26T15:10:14.329Z,5.30
2018-11-26T15:12:43.059Z,6.00
2018-11-26T15:15:12.702Z,5.53
2018-11-26T15:17:42.150Z,5.73
2018-11-26T15:20:12.848Z,5.17
2018-11-26T15:22:41.205Z,5.47
2018-11-26T15:25:13.588Z,6.10
2018-11-26T15:27:41.982Z,7.73
2018-11-26T15:30:11.936Z,7.33
2018-11-26T15:32:40.353Z,6.57
2018-11-26T15:35:12.360Z,5.60
2018-11-26T15:37:40.953Z,6.10
2018-11-26T15:40:10.473Z,6.27
2018-11-26T15:42:38.940Z,6.53
2018-11-26T15:45:17.371Z,6.00
2018-11-26T15:47:46.301Z,6.67
2018-11-26T15:50:14.703Z,6.47
2018-11-26T15:52:43.099Z,6.90
2018-11-26T15:55:13.754Z,6.37
2018-11-26T15:57:42.165Z,7.50
2018-11-26T16:00:15.667Z,6.20
2018-11-26T16:02:44.083Z,7.17
2018-11-26T16:05:15.615Z,8.13
2018-11-26T16:07:44.342Z,7.93
2018-11-26T16:10:13.816Z,7.40
2018-11-26T16:12:42.932Z,7.80
2018-11-26T16:15:15.535Z,8.17
2018-11-26T16:17:43.907Z,8.37
2018-11-26T16:20:15.889Z,7.93
2018-11-26T16:22:44.598Z,8.50
2018-11-26T16:25:15.311Z,7.93
2018-11-26T16:27:43.681Z,9.57
2018-11-26T16:30:13.445Z,8.97
2018-11-26T16:32:42.997Z,7.80
2018-11-26T16:35:13.913Z,8.00
2018-11-26T16:37:42.390Z,10.40
2018-11-26T16:40:13.093Z,7.00
2018-11-26T16:42:41.477Z,7.80
2018-11-26T16:45:13.583Z,8.57
2018-11-26T16:47:42.015Z,8.80
2018-11-26T16:50:11.867Z,8.97
2018-11-26T16:52:40.261Z,8.77
2018-11-26T16:55:11.261Z,9.03
2018-11-26T16:57:39.685Z,9.53
2018-11-26T17:00:25.040Z,9.47
2018-11-26T17:02:55.856Z,9.60
2018-11-26T17:05:34.903Z,9.23
2018-11-26T17:08:03.372Z,10.10
2018-11-26T17:10:31.707Z,10.83
2018-11-26T17:13:06.654Z,9.60
2018-11-26T17:15:35.148Z,10.50
2018-11-26T17:18:03.513Z,11.70
2018-11-26T17:20:31.917Z,10.73
2018-11-26T17:23:00.406Z,10.60
2018-11-26T17:25:28.856Z,10.13
2018-11-26T17:27:57.303Z,10.27
2018-11-26T17:30:27.064Z,10.17
2018-11-26T17:33:01.196Z,10.50
2018-11-26T17:35:30.468Z,9.70
2018-11-26T17:37:58.948Z,11.63
2018-11-26T17:40:28.252Z,10.37
2018-11-26T17:42:56.871Z,9.23
2018-11-26T17:45:25.952Z,10.90
2018-11-26T17:47:55.415Z,11.37
2018-11-26T17:50:29.957Z,10.97
2018-11-26T17:52:58.598Z,10.93
2018-11-26T17:55:27.026Z,12.57
2018-11-26T17:57:55.349Z,13.37
2018-11-26T18:00:29.484Z,14.43
2018-11-26T18:02:57.870Z,12.30
2018-11-26T18:05:27.707Z,11.73
2018-11-26T18:08:04.237Z,12.87
2018-11-26T18:10:32.728Z,12.17
2018-11-26T18:13:01.052Z,14.63
2018-11-26T18:15:29.422Z,11.50
2018-11-26T18:17:57.909Z,13.30
2018-11-26T18:20:26.265Z,12.07
2018-11-26T18:22:55.339Z,11.60
2018-11-26T18:25:24.547Z,11.73
2018-11-26T18:28:00.838Z,11.70
2018-11-26T18:30:30.834Z,11.00
2018-11-26T18:32:59.210Z,11.23
2018-11-26T18:35:27.590Z,10.37
2018-11-26T18:37:55.936Z,10.20
2018-11-26T18:40:24.390Z,11.07
2018-11-26T18:42:52.716Z,10.10
2018-11-26T18:45:21.326Z,9.43
2018-11-26T18:47:49.714Z,12.03
2018-11-26T18:50:20.292Z,9.77
2018-11-26T18:52:49.408Z,11.43
2018-11-26T18:55:18.156Z,9.17
2018-11-26T18:57:46.681Z,9.90
2018-11-26T19:00:27.984Z,10.27
2018-11-26T19:02:57.111Z,8.50
2018-11-26T19:05:25.510Z,10.00
2018-11-26T19:07:54.086Z,10.60
2018-11-26T19:10:25.871Z,11.43
2018-11-26T19:12:57.885Z,10.60
2018-11-26T19:15:29.398Z,11.13
2018-11-26T19:18:02.905Z,10.10
2018-11-26T19:20:31.391Z,10.50
2018-11-26T19:22:59.789Z,12.57
2018-11-26T19:25:28.277Z,12.80
2018-11-26T19:27:56.721Z,12.80
2018-11-26T19:30:25.103Z,11.90
2018-11-26T19:32:53.506Z,11.77
2018-11-26T19:35:21.835Z,10.40
2018-11-26T19:37:50.587Z,11.73
2018-11-26T19:40:19.133Z,12.83
2018-11-26T19:42:47.992Z,11.10
2018-11-26T19:45:17.882Z,13.43
2018-11-26T19:47:46.388Z,12.20
2018-11-26T19:50:16.083Z,11.97
2018-11-26T19:52:45.335Z,12.60
2018-11-26T19:55:16.125Z,14.00
2018-11-26T19:57:44.636Z,11.70
2018-11-26T20:00:16.121Z,12.47
2018-11-26T20:02:46.089Z,12.00
2018-11-26T20:05:26.311Z,13.80
2018-11-26T20:07:54.811Z,14.00
2018-11-26T20:10:23.270Z,13.07
2018-11-26T20:12:51.655Z,13.07
2018-11-26T20:15:20.031Z,13.83
2018-11-26T20:17:48.398Z,13.80
2018-11-26T20:20:16.742Z,13.80
2018-11-26T20:22:45.187Z,12.87
2018-11-26T20:25:14.505Z,11.80
2018-11-26T20:27:43.409Z,13.37
2018-11-26T20:30:13.249Z,12.40
2018-11-26T20:32:42.931Z,11.87
2018-11-26T20:35:12.072Z,13.40
2018-11-26T20:37:40.493Z,14.13
2018-11-26T20:40:13.136Z,12.80
2018-11-26T20:42:48.301Z,12.23
2018-11-26T20:45:16.955Z,12.10
2018-11-26T20:47:46.605Z,11.90
2018-11-26T20:50:19.500Z,11.60
2018-11-26T20:52:47.897Z,14.53
2018-11-26T20:55:18.429Z,13.53
2018-11-26T20:57:47.809Z,11.57
2018-11-26T21:00:19.169Z,14.00
2018-11-26T21:02:49.173Z,11.97
2018-11-26T21:05:17.901Z,12.37
2018-11-26T21:07:46.373Z,13.20
2018-11-26T21:10:15.753Z,12.10
2018-11-26T21:12:44.120Z,12.67
2018-11-26T21:15:17.011Z,14.07
2018-11-26T21:17:46.899Z,14.63
2018-11-26T21:20:21.965Z,12.60
2018-11-26T21:22:50.371Z,13.37
2018-11-26T21:25:19.018Z,14.87
2018-11-26T21:27:47.451Z,14.23
2018-11-26T21:30:18.379Z,14.03
2018-11-26T21:32:46.832Z,12.93
2018-11-26T21:35:16.481Z,13.90
2018-11-26T21:37:46.405Z,13.83
2018-11-26T21:40:20.299Z,13.07
2018-11-26T21:42:44.475Z,11.37
2018-11-26T21:45:26.793Z,12.13
2018-11-26T21:47:55.211Z,12.10
2018-11-26T21:50:23.647Z,12.30
2018-11-26T21:52:51.995Z,12.73
2018-11-26T21:55:20.447Z,13.20
2018-11-26T21:57:48.921Z,11.67
2018-11-26T22:00:23.416Z,12.60
2018-11-26T22:02:52.003Z,12.30
2018-11-26T22:05:20.757Z,11.53
2018-11-26T22:07:49.319Z,12.40
2018-11-26T22:10:19.029Z,11.90
2018-11-26T22:12:48.857Z,14.50
2018-11-26T22:15:17.234Z,14.70
2018-11-26T22:17:45.856Z,12.57
2018-11-26T22:20:30.522Z,12.00
2018-11-26T22:22:58.964Z,11.73
2018-11-26T22:25:27.360Z,12.27
2018-11-26T22:27:57.323Z,12.73
2018-11-26T22:30:27.650Z,12.93
2018-11-26T22:32:56.110Z,12.90
2018-11-26T22:35:24.623Z,13.27
2018-11-26T22:37:53.595Z,11.93
2018-11-26T22:40:24.164Z,11.40
2018-11-26T22:42:52.706Z,12.60
2018-11-26T22:45:28.593Z,11.73
2018-11-26T22:47:58.799Z,12.93
2018-11-26T22:50:27.271Z,13.20
2018-11-26T22:52:56.398Z,12.63
2018-11-26T22:55:25.290Z,12.27
2018-11-26T22:57:53.870Z,12.47
2018-11-26T23:00:39.375Z,12.70
2018-11-26T23:03:07.741Z,13.00
2018-11-26T23:05:36.535Z,14.20
2018-11-26T23:08:05.421Z,13.50
2018-11-26T23:10:33.864Z,12.40
2018-11-26T23:13:02.284Z,13.50
2018-11-26T23:15:30.815Z,13.17
2018-11-26T23:17:59.239Z,13.70
2018-11-26T23:20:27.716Z,11.97
2018-11-26T23:22:56.093Z,12.20
2018-11-26T23:25:24.543Z,10.97
2018-11-26T23:27:52.932Z,12.97
2018-11-26T23:30:23.757Z,12.63
2018-11-26T23:32:53.536Z,14.50
2018-11-26T23:35:21.923Z,13.47
2018-11-26T23:37:50.331Z,14.00
2018-11-26T23:40:25.236Z,13.33
2018-11-26T23:42:53.743Z,13.40
2018-11-26T23:45:24.969Z,11.67
2018-11-26T23:47:53.580Z,11.30
2018-11-26T23:50:22.015Z,11.70
2018-11-26T23:52:50.387Z,12.10
2018-11-26T23:55:20.072Z,12.47
2018-11-26T23:57:48.549Z,13.57
